X  Sluiten METAR luchtvaart weer gegevens      EHRD Rotterdam The Hague Airport
Temperatuur
13°C Temperatuur
6°C Dauwpunt
63% Vochtigheid



Wind
13 KM/U
8 MPH
4 M/S
7 KTS



360°
Noord
Huidig weer

Helder Helder
Luchtdruk 1027.92 (hPa) - 30.35 (inHg)
Zicht 6.2 (mijl) - 10 (km)
Vliegveld
Vliegveld code EHRD

Locatie : Rotterdam The Hague Airport
Afstand: 16 (km)

Metar:
EHRD 231625Z AUTO 36007KT 290V040 9999 NCD 13/06 Q1028 NOSIG

Tijd: 23-04-2021 18:25 CEST